Time;durP1;ratioP1;P1;durP2;ratioP2;P2;SDS_P1;SDS_P2;PMS_P1;PMS_P2;Temp;Humidity;BMP_temperature;BMP_pressure;BME280_temperature;BME280_humidity;BME280_pressure;Samples;Min_cycle;Max_cycle;Signal;HPM_P1;HPM_P2
2022/10/28 00:00:28;;;;;;;13.77;10.80;;;15.50;99.90;;;;;;5044926;28;20067;-82
2022/10/28 00:02:54;;;;;;;16.92;12.25;;;15.40;99.90;;;;;;5044208;28;20541;-82
2022/10/28 00:05:20;;;;;;;15.82;11.63;;;15.40;99.90;;;;;;5029609;28;20076;-82
2022/10/28 00:07:48;;;;;;;20.20;11.70;;;15.40;99.90;;;;;;5048672;28;20290;-81
2022/10/28 00:10:14;;;;;;;20.70;12.55;;;15.30;99.90;;;;;;5027495;28;20646;-82
2022/10/28 00:12:40;;;;;;;16.95;11.18;;;15.20;99.90;;;;;;5042150;28;20098;-82
2022/10/28 00:15:06;;;;;;;19.58;13.35;;;15.20;99.90;;;;;;5063311;28;20841;-82
2022/10/28 00:17:32;;;;;;;18.23;11.55;;;15.10;99.90;;;;;;5037822;28;20083;-82
2022/10/28 00:20:01;;;;;;;19.65;12.45;;;15.00;99.90;;;;;;5020720;28;20037;-82
2022/10/28 00:22:30;;;;;;;16.70;12.27;;;15.00;99.90;;;;;;5029493;28;20087;-81
2022/10/28 00:24:55;;;;;;;21.67;15.10;;;14.90;99.90;;;;;;5040327;28;20048;-82
2022/10/28 00:27:21;;;;;;;17.27;14.90;;;14.90;99.90;;;;;;5014238;28;20044;-82
2022/10/28 00:29:47;;;;;;;21.10;13.45;;;14.90;99.90;;;;;;5028301;28;20040;-82
2022/10/28 00:32:12;;;;;;;15.77;12.52;;;14.90;99.90;;;;;;5043264;28;20040;-81
2022/10/28 00:34:41;;;;;;;16.60;13.65;;;14.90;99.90;;;;;;5024364;28;20071;-81
2022/10/28 00:37:07;;;;;;;18.35;13.13;;;14.90;99.90;;;;;;5032823;28;20051;-81
2022/10/28 00:39:33;;;;;;;24.70;16.67;;;14.90;99.90;;;;;;5045937;28;20499;-82
2022/10/28 00:42:02;;;;;;;23.70;17.13;;;14.90;99.90;;;;;;5045343;28;20047;-82
2022/10/28 00:44:52;;;;;;;21.02;16.05;;;14.90;99.90;;;;;;5027490;28;20103;-81
2022/10/28 00:47:42;;;;;;;;;;;14.90;99.90;;;;;;5036803;28;20177;-81
2022/10/28 00:50:52;;;;;;;20.55;15.13;;;14.90;99.90;;;;;;5025192;28;19947;-82
2022/10/28 00:53:21;;;;;;;19.80;15.40;;;14.90;99.90;;;;;;5038772;28;20124;-82
2022/10/28 00:55:48;;;;;;;19.48;15.32;;;14.90;99.90;;;;;;5043765;28;20402;-82
2022/10/28 00:58:16;;;;;;;19.70;15.30;;;15.00;99.90;;;;;;5025481;28;20487;-82
2022/10/28 01:00:42;;;;;;;24.15;17.38;;;15.00;99.90;;;;;;5043582;28;20048;-82
2022/10/28 01:03:08;;;;;;;21.15;16.52;;;15.00;99.90;;;;;;5028806;28;20050;-82
2022/10/28 01:05:37;;;;;;;18.05;16.05;;;15.00;99.90;;;;;;5041601;28;20454;-82
2022/10/28 01:08:04;;;;;;;21.75;17.20;;;15.10;99.90;;;;;;5042626;28;20214;-82
2022/10/28 01:10:51;;;;;;;23.90;17.58;;;15.10;99.90;;;;;;5035071;28;20562;-82
2022/10/28 01:13:34;;;;;;;24.63;18.42;;;15.10;99.90;;;;;;5028488;28;20059;-82
2022/10/28 01:16:12;;;;;;;20.25;17.42;;;15.20;99.90;;;;;;5051145;28;20560;-82
2022/10/28 01:18:57;;;;;;;24.63;18.58;;;15.10;99.90;;;;;;5054038;28;20048;-82
2022/10/28 01:21:54;;;;;;;24.20;18.17;;;15.20;99.90;;;;;;5041922;28;20518;-82
2022/10/28 01:24:41;;;;;;;18.10;16.08;;;15.20;99.90;;;;;;5043356;28;20048;-82
2022/10/28 01:27:25;;;;;;;20.75;17.13;;;15.20;99.90;;;;;;5038914;28;20136;-82
2022/10/28 01:30:41;;;;;;;20.73;16.35;;;15.20;99.90;;;;;;5046297;28;20039;-82
2022/10/28 01:33:28;;;;;;;21.80;17.38;;;15.20;99.90;;;;;;5016601;28;20048;-82
2022/10/28 01:36:16;;;;;;;25.65;18.20;;;15.20;99.90;;;;;;5017003;28;20040;-82
2022/10/28 01:38:54;;;;;;;24.67;18.52;;;15.20;99.90;;;;;;5051619;28;20514;-82
2022/10/28 01:41:29;;;;;;;21.63;18.00;;;15.20;99.90;;;;;;5057151;28;20041;-82
2022/10/28 01:44:17;;;;;;;24.52;19.10;;;15.10;99.90;;;;;;5039988;28;20454;-82
2022/10/28 01:47:00;;;;;;;25.42;18.75;;;15.10;99.90;;;;;;5048812;28;20052;-83
2022/10/28 01:49:39;;;;;;;24.45;19.40;;;15.10;99.90;;;;;;5058602;28;20495;-82
2022/10/28 01:52:10;;;;;;;27.58;19.40;;;15.10;99.90;;;;;;5038096;28;20052;-82
2022/10/28 01:54:38;;;;;;;27.48;21.70;;;15.10;99.90;;;;;;5041311;28;20044;-82
2022/10/28 01:57:04;;;;;;;25.15;19.00;;;15.10;99.90;;;;;;5042583;28;20037;-82
2022/10/28 01:59:32;;;;;;;23.95;19.02;;;15.10;99.90;;;;;;5010144;28;20041;-82
2022/10/28 02:02:01;;;;;;;24.92;20.20;;;15.10;99.90;;;;;;5025164;28;20451;-83
2022/10/28 02:04:27;;;;;;;23.27;19.10;;;15.00;99.90;;;;;;5038728;28;20053;-82
2022/10/28 02:06:54;;;;;;;25.08;20.60;;;15.00;99.90;;;;;;5030977;28;20843;-82
2022/10/28 02:09:49;;;;;;;24.25;19.58;;;15.00;99.90;;;;;;5037474;28;20418;-83
2022/10/28 02:12:26;;;;;;;25.10;18.83;;;15.10;99.90;;;;;;5074778;28;20091;-82
2022/10/28 02:15:14;;;;;;;24.42;21.35;;;15.00;99.90;;;;;;5062132;28;20502;-82
2022/10/28 02:18:19;;;;;;;31.75;21.65;;;15.10;99.90;;;;;;5041244;28;20542;-82
2022/10/28 02:21:02;;;;;;;27.88;21.17;;;15.10;99.90;;;;;;5061565;28;20044;-81
2022/10/28 02:23:41;;;;;;;31.45;22.27;;;15.10;99.90;;;;;;5058929;28;20186;-82
2022/10/28 02:26:26;;;;;;;25.00;21.53;;;15.00;99.90;;;;;;5061959;28;20044;-81
2022/10/28 02:29:18;;;;;;;29.45;22.23;;;15.00;99.90;;;;;;5048546;28;20601;-82
2022/10/28 02:31:53;;;;;;;28.90;21.83;;;15.00;99.90;;;;;;5061445;28;20048;-82
2022/10/28 02:34:29;;;;;;;25.40;20.17;;;15.00;99.90;;;;;;5062540;28;20044;-82
2022/10/28 02:36:59;;;;;;;29.25;20.05;;;14.90;99.90;;;;;;5059326;28;20041;-82
2022/10/28 02:39:29;;;;;;;28.95;20.98;;;14.90;99.90;;;;;;5054055;28;20680;-82
2022/10/28 02:42:12;;;;;;;25.63;21.35;;;14.90;99.90;;;;;;5041649;28;20079;-82
2022/10/28 02:44:47;;;;;;;28.35;22.50;;;14.90;99.90;;;;;;5040121;28;20713;-82
2022/10/28 02:47:20;;;;;;;26.95;20.60;;;14.80;99.90;;;;;;5051293;28;20495;-82
2022/10/28 02:49:52;;;;;;;27.13;20.48;;;14.90;99.90;;;;;;5063477;28;20076;-81
2022/10/28 02:52:20;;;;;;;24.15;19.52;;;14.90;99.90;;;;;;5059498;28;20044;-82
2022/10/28 02:54:53;;;;;;;32.92;22.60;;;14.90;99.90;;;;;;5059726;28;20056;-82
2022/10/28 02:57:23;;;;;;;28.67;22.15;;;14.90;99.90;;;;;;5031326;28;20308;-81
2022/10/28 03:00:00;;;;;;;28.40;20.00;;;14.90;99.90;;;;;;5046075;28;20052;-82
2022/10/28 03:02:27;;;;;;;22.92;18.90;;;14.80;99.90;;;;;;5043868;28;20082;-82
2022/10/28 03:04:53;;;;;;;28.20;19.92;;;14.80;99.90;;;;;;5057592;28;20049;-81
2022/10/28 03:07:19;;;;;;;26.17;20.20;;;14.70;99.90;;;;;;5043377;28;20193;-82
2022/10/28 03:09:45;;;;;;;25.85;19.60;;;14.70;99.90;;;;;;5057606;28;20090;-82
2022/10/28 03:12:11;;;;;;;25.85;20.05;;;14.70;99.90;;;;;;5027673;28;20052;-82
2022/10/28 03:14:37;;;;;;;27.00;20.10;;;14.60;99.90;;;;;;5026071;28;20045;-81
2022/10/28 03:17:03;;;;;;;30.35;22.00;;;14.60;99.90;;;;;;5045619;28;20096;-82
2022/10/28 03:19:32;;;;;;;27.48;20.75;;;14.60;99.90;;;;;;5042369;28;20186;-82
2022/10/28 03:21:58;;;;;;;25.70;20.55;;;14.60;99.90;;;;;;5042713;28;20036;-82
2022/10/28 03:24:27;;;;;;;27.67;21.33;;;14.50;99.90;;;;;;5011026;28;20104;-81
2022/10/28 03:26:52;;;;;;;29.08;20.23;;;14.50;99.90;;;;;;5011372;28;20080;-82
2022/10/28 03:29:18;;;;;;;21.83;18.80;;;14.50;99.90;;;;;;5024182;28;20130;-82
2022/10/28 03:31:44;;;;;;;25.77;19.30;;;14.50;99.90;;;;;;5028362;28;20140;-81
2022/10/28 03:34:09;;;;;;;26.55;20.95;;;14.50;99.90;;;;;;5026652;28;20084;-81
2022/10/28 03:36:35;;;;;;;25.65;20.58;;;14.50;99.90;;;;;;5026684;28;20048;-81
2022/10/28 03:39:01;;;;;;;27.50;21.80;;;14.50;99.90;;;;;;5020981;28;20052;-82
2022/10/28 03:41:27;;;;;;;26.88;20.45;;;14.40;99.90;;;;;;5040490;28;20104;-82
2022/10/28 03:43:53;;;;;;;26.08;18.60;;;14.40;99.90;;;;;;5060866;28;20040;-82
2022/10/28 03:46:18;;;;;;;23.88;19.73;;;14.40;99.90;;;;;;5033106;28;20127;-81
2022/10/28 03:48:44;;;;;;;27.08;21.75;;;14.40;99.90;;;;;;5016004;28;20047;-81
2022/10/28 03:51:10;;;;;;;24.77;21.77;;;14.40;99.90;;;;;;5045778;28;20547;-81
2022/10/28 03:53:36;;;;;;;27.85;23.27;;;14.40;99.90;;;;;;5030795;28;20125;-82
2022/10/28 03:56:02;;;;;;;25.17;19.67;;;14.40;99.90;;;;;;5025258;28;20033;-81
2022/10/28 03:58:31;;;;;;;27.35;22.40;;;14.40;99.90;;;;;;5032504;28;20494;-81
2022/10/28 04:00:56;;;;;;;25.30;20.60;;;14.40;99.90;;;;;;5056862;28;20040;-82
2022/10/28 04:03:24;;;;;;;27.38;22.42;;;14.40;99.90;;;;;;5055925;28;20040;-81
2022/10/28 04:05:50;;;;;;;30.70;21.77;;;14.40;99.90;;;;;;5061148;28;20168;-82
2022/10/28 04:08:17;;;;;;;24.83;20.27;;;14.50;99.90;;;;;;5053512;28;20665;-82
2022/10/28 04:10:44;;;;;;;28.13;20.35;;;14.50;99.90;;;;;;5025678;28;20565;-82
2022/10/28 04:13:10;;;;;;;24.58;20.73;;;14.50;99.90;;;;;;5056110;28;20814;-82
2022/10/28 04:15:35;;;;;;;24.77;19.02;;;14.50;99.90;;;;;;5054718;28;20045;-82
2022/10/28 04:18:02;;;;;;;26.00;20.05;;;14.50;99.90;;;;;;5023780;28;20055;-82
2022/10/28 04:20:29;;;;;;;25.95;19.65;;;14.50;99.90;;;;;;5048683;28;20080;-82
2022/10/28 04:22:55;;;;;;;27.83;20.27;;;14.50;99.90;;;;;;5035465;28;20029;-82
2022/10/28 04:25:22;;;;;;;25.48;20.38;;;14.60;99.90;;;;;;5049133;28;20040;-82
2022/10/28 04:27:48;;;;;;;25.95;19.50;;;14.60;99.90;;;;;;5050217;28;20037;-82
2022/10/28 04:30:14;;;;;;;27.00;21.27;;;14.60;99.90;;;;;;5041773;28;20048;-81
2022/10/28 04:32:41;;;;;;;26.33;20.27;;;14.60;99.90;;;;;;5033810;28;20124;-82
2022/10/28 04:35:08;;;;;;;28.10;20.20;;;14.60;99.90;;;;;;5036944;28;20044;-81
2022/10/28 04:37:34;;;;;;;23.33;20.15;;;14.60;99.90;;;;;;5035002;28;20045;-81
2022/10/28 04:40:00;;;;;;;24.77;18.48;;;14.60;99.90;;;;;;5040418;28;20051;-82
2022/10/28 04:42:26;;;;;;;25.58;20.35;;;14.60;99.90;;;;;;5039228;28;20049;-82
2022/10/28 04:44:52;;;;;;;27.67;20.60;;;14.60;99.90;;;;;;5030146;28;20053;-82
2022/10/28 04:47:18;;;;;;;24.20;19.25;;;14.60;99.90;;;;;;5038922;28;20039;-81
2022/10/28 04:49:44;;;;;;;25.23;19.25;;;14.50;99.90;;;;;;5027321;28;20032;-82
2022/10/28 04:52:10;;;;;;;27.20;19.63;;;14.50;99.90;;;;;;5062100;28;20131;-81
2022/10/28 04:54:36;;;;;;;25.58;19.20;;;14.50;99.90;;;;;;5038963;28;20040;-82
2022/10/28 04:57:02;;;;;;;23.30;17.90;;;14.50;99.90;;;;;;5043275;28;20080;-82
2022/10/28 04:59:28;;;;;;;24.33;18.92;;;14.50;99.90;;;;;;5027118;28;20108;-82
2022/10/28 05:01:53;;;;;;;25.35;19.85;;;14.50;99.90;;;;;;5029566;28;20055;-82
2022/10/28 05:04:19;;;;;;;25.15;18.25;;;14.40;99.90;;;;;;5043508;28;20045;-82
2022/10/28 05:06:45;;;;;;;23.77;20.23;;;14.40;99.90;;;;;;5042462;28;20070;-82
2022/10/28 05:09:11;;;;;;;20.75;16.77;;;14.40;99.90;;;;;;5060100;28;20131;-84
2022/10/28 05:11:37;;;;;;;20.92;17.08;;;14.30;99.90;;;;;;5026198;28;20494;-79
2022/10/28 05:14:03;;;;;;;19.00;16.92;;;14.30;99.90;;;;;;5040090;28;20056;-79
2022/10/28 05:16:34;;;;;;;22.75;18.95;;;14.30;99.90;;;;;;5044912;28;20427;-80
2022/10/28 05:19:00;;;;;;;28.35;20.25;;;14.20;99.90;;;;;;5011922;28;20049;-80
2022/10/28 05:21:26;;;;;;;21.88;17.08;;;14.20;99.90;;;;;;5057311;28;20036;-79
2022/10/28 05:23:52;;;;;;;23.30;17.45;;;14.20;99.90;;;;;;5053187;28;20175;-79
2022/10/28 05:26:18;;;;;;;23.25;18.98;;;14.20;99.90;;;;;;5040500;28;20055;-79
2022/10/28 05:28:47;;;;;;;25.02;19.42;;;14.20;99.90;;;;;;5055471;28;20211;-80
2022/10/28 05:31:12;;;;;;;28.10;18.10;;;14.20;99.90;;;;;;5056852;28;20060;-79
2022/10/28 05:33:38;;;;;;;22.10;18.30;;;14.20;99.90;;;;;;5027447;28;20036;-79
2022/10/28 05:36:04;;;;;;;24.35;17.77;;;14.10;99.90;;;;;;5053929;28;20033;-79
2022/10/28 05:38:30;;;;;;;23.17;18.05;;;14.10;99.90;;;;;;5059472;28;20044;-79
2022/10/28 05:40:56;;;;;;;25.10;18.58;;;14.10;99.90;;;;;;5022728;28;20063;-79
2022/10/28 05:43:22;;;;;;;26.13;17.67;;;14.20;99.90;;;;;;5058473;28;20049;-79
2022/10/28 05:45:55;;;;;;;22.17;17.52;;;14.10;99.90;;;;;;5058986;28;20052;-79
2022/10/28 05:48:21;;;;;;;21.98;17.83;;;14.10;99.90;;;;;;5041322;28;20049;-79
2022/10/28 05:50:47;;;;;;;21.65;18.02;;;14.10;99.90;;;;;;5048700;28;20056;-79
2022/10/28 05:53:13;;;;;;;23.08;18.20;;;14.10;99.90;;;;;;5053071;28;20510;-79
2022/10/28 05:55:39;;;;;;;27.25;18.77;;;14.10;99.90;;;;;;5034830;28;20040;-79
2022/10/28 05:58:08;;;;;;;21.77;17.08;;;14.00;99.90;;;;;;5039148;28;20032;-80
2022/10/28 06:00:35;;;;;;;25.08;17.75;;;14.10;99.90;;;;;;5036895;28;20059;-79
2022/10/28 06:03:08;;;;;;;24.10;17.75;;;14.00;99.90;;;;;;5037022;28;20039;-79
2022/10/28 06:05:36;;;;;;;22.77;17.42;;;14.00;99.90;;;;;;5058197;28;20036;-80
2022/10/28 06:08:03;;;;;;;23.67;17.65;;;14.00;99.90;;;;;;5055812;28;20051;-79
2022/10/28 06:10:29;;;;;;;25.17;17.02;;;14.00;99.90;;;;;;5019589;28;20070;-80
2022/10/28 06:12:55;;;;;;;24.08;16.83;;;14.00;99.90;;;;;;5056162;28;20563;-80
2022/10/28 06:15:21;;;;;;;26.27;16.80;;;14.10;99.90;;;;;;5037391;28;20522;-80
2022/10/28 06:17:50;;;;;;;22.42;16.15;;;14.10;99.90;;;;;;5039998;28;20053;-79
2022/10/28 06:20:17;;;;;;;22.60;16.85;;;14.00;99.90;;;;;;5023280;28;20407;-80
2022/10/28 06:22:53;;;;;;;23.90;16.52;;;14.00;99.90;;;;;;5054447;28;20049;-79
2022/10/28 06:25:21;;;;;;;22.10;16.52;;;14.10;99.90;;;;;;5042591;28;20048;-79
2022/10/28 06:27:57;;;;;;;25.05;17.77;;;14.10;99.90;;;;;;5050322;28;20060;-80
2022/10/28 06:30:26;;;;;;;19.77;15.02;;;14.10;99.90;;;;;;5054176;28;20052;-80
2022/10/28 06:32:52;;;;;;;22.75;16.58;;;14.10;99.90;;;;;;5058592;28;20099;-80
2022/10/28 06:35:18;;;;;;;20.88;14.95;;;14.10;99.90;;;;;;5058513;28;20044;-80
2022/10/28 06:37:44;;;;;;;22.02;15.60;;;14.10;99.90;;;;;;5055894;28;20045;-80
2022/10/28 06:40:10;;;;;;;24.25;16.45;;;14.20;99.90;;;;;;5034729;28;20126;-81
2022/10/28 06:42:36;;;;;;;23.20;16.20;;;14.10;99.90;;;;;;5023626;28;20110;-80
2022/10/28 06:45:02;;;;;;;21.35;15.68;;;14.20;99.90;;;;;;5024456;28;20181;-80
2022/10/28 06:47:27;;;;;;;23.48;16.65;;;14.20;99.90;;;;;;5038302;28;20337;-80
2022/10/28 06:49:53;;;;;;;21.85;15.52;;;14.20;99.90;;;;;;5046363;28;20502;-80
2022/10/28 06:52:19;;;;;;;23.25;15.13;;;14.20;99.90;;;;;;5037135;28;20097;-80
2022/10/28 06:54:44;;;;;;;25.50;15.55;;;14.20;99.90;;;;;;5028120;28;20076;-80
2022/10/28 06:57:10;;;;;;;22.23;15.27;;;14.20;99.90;;;;;;5033691;28;20124;-80
2022/10/28 06:59:36;;;;;;;20.85;14.57;;;14.30;99.90;;;;;;5048544;28;20142;-80
2022/10/28 07:02:02;;;;;;;18.13;13.75;;;14.30;99.90;;;;;;5038832;28;20656;-80
2022/10/28 07:04:32;;;;;;;19.10;13.85;;;14.30;99.90;;;;;;5031756;28;20044;-80
2022/10/28 07:06:58;;;;;;;22.70;16.15;;;14.40;99.90;;;;;;5055571;28;20032;-80
2022/10/28 07:09:24;;;;;;;27.40;14.38;;;14.40;99.90;;;;;;5051626;28;20075;-80
2022/10/28 07:11:50;;;;;;;20.23;13.40;;;14.40;99.90;;;;;;5060762;28;20044;-79
2022/10/28 07:14:16;;;;;;;20.98;14.13;;;14.40;99.90;;;;;;5027333;28;20395;-79
2022/10/28 07:16:42;;;;;;;22.52;13.65;;;14.50;99.90;;;;;;5028005;28;20048;-79
2022/10/28 07:19:08;;;;;;;19.50;14.40;;;14.50;99.90;;;;;;5029025;28;20049;-80
2022/10/28 07:21:34;;;;;;;25.40;13.48;;;14.50;99.90;;;;;;5025581;28;20072;-79
2022/10/28 07:24:01;;;;;;;18.40;12.98;;;14.50;99.90;;;;;;5063363;28;20044;-79
2022/10/28 07:26:27;;;;;;;24.33;13.82;;;14.60;99.90;;;;;;5060029;28;20055;-80
2022/10/28 07:28:53;;;;;;;21.98;13.35;;;14.60;99.90;;;;;;5058506;28;20342;-80
2022/10/28 07:31:19;;;;;;;21.42;12.40;;;14.60;99.90;;;;;;5028845;28;20048;-80
2022/10/28 07:33:50;;;;;;;20.85;12.45;;;14.70;99.90;;;;;;5047894;28;20051;-80
2022/10/28 07:36:16;;;;;;;19.05;12.48;;;14.70;99.90;;;;;;5061878;28;20274;-80
2022/10/28 07:38:42;;;;;;;19.45;11.93;;;14.80;99.90;;;;;;5031500;28;20041;-80
2022/10/28 07:41:09;;;;;;;15.32;11.80;;;14.90;99.90;;;;;;5049196;28;20056;-80
2022/10/28 07:43:36;;;;;;;22.02;12.13;;;14.90;99.90;;;;;;5059320;28;20033;-80
2022/10/28 07:46:01;;;;;;;18.02;11.10;;;15.00;99.90;;;;;;5061858;28;20062;-80
2022/10/28 07:48:27;;;;;;;17.75;11.38;;;15.00;99.90;;;;;;5036074;28;20969;-80
2022/10/28 07:50:53;;;;;;;17.17;11.52;;;15.10;99.90;;;;;;5041959;28;20577;-80
2022/10/28 07:53:19;;;;;;;20.83;11.88;;;15.20;99.90;;;;;;5051635;28;20778;-80
2022/10/28 07:55:53;;;;;;;20.27;12.27;;;15.30;99.90;;;;;;5057203;28;20036;-80
2022/10/28 07:58:18;;;;;;;17.90;11.45;;;15.30;99.90;;;;;;5058588;28;20048;-80
2022/10/28 08:00:44;;;;;;;23.13;12.02;;;15.40;99.90;;;;;;5038769;28;20392;-80
2022/10/28 08:03:10;;;;;;;18.85;11.77;;;15.40;99.90;;;;;;5037341;28;20058;-80
2022/10/28 08:05:36;;;;;;;18.42;11.32;;;15.50;99.90;;;;;;5041431;28;20226;-80
2022/10/28 08:08:01;;;;;;;23.98;11.68;;;15.50;99.90;;;;;;5039765;28;20045;-80
2022/10/28 08:10:27;;;;;;;20.10;11.73;;;15.60;99.90;;;;;;5026462;28;20045;-80
2022/10/28 08:12:56;;;;;;;19.75;10.88;;;15.60;99.90;;;;;;5044850;28;20044;-80
2022/10/28 08:15:23;;;;;;;14.57;11.30;;;15.70;99.90;;;;;;5043188;28;20036;-80
2022/10/28 08:17:55;;;;;;;15.40;10.80;;;15.70;99.90;;;;;;5024114;28;20067;-80
2022/10/28 08:20:22;;;;;;;17.75;10.95;;;15.80;99.90;;;;;;5042627;28;20060;-79
2022/10/28 08:22:48;;;;;;;20.92;11.80;;;15.90;99.90;;;;;;5063173;28;20032;-80
2022/10/28 08:25:14;;;;;;;20.95;11.70;;;15.90;99.90;;;;;;5038123;28;20519;-79
2022/10/28 08:27:41;;;;;;;16.75;11.18;;;15.90;99.90;;;;;;5045313;28;20562;-80
2022/10/28 08:30:08;;;;;;;19.50;10.68;;;16.00;99.90;;;;;;5030078;28;20044;-80
2022/10/28 08:32:34;;;;;;;15.57;10.25;;;16.10;99.90;;;;;;5045602;28;20762;-80
2022/10/28 08:35:00;;;;;;;20.88;11.23;;;16.10;99.90;;;;;;5043293;28;20033;-81
2022/10/28 08:37:26;;;;;;;22.10;11.18;;;16.20;99.90;;;;;;5046801;28;20513;-81
2022/10/28 08:39:51;;;;;;;16.30;10.98;;;16.20;99.90;;;;;;5053751;28;20044;-82
2022/10/28 08:42:21;;;;;;;18.10;11.23;;;16.30;99.90;;;;;;5028390;28;20055;-81
2022/10/28 08:44:52;;;;;;;17.65;11.55;;;16.40;99.90;;;;;;5042292;28;20040;-81
2022/10/28 08:47:38;;;;;;;20.65;11.02;;;16.40;99.90;;;;;;5061939;28;20503;-81
2022/10/28 08:50:20;;;;;;;16.80;10.57;;;16.40;99.90;;;;;;5059788;28;20564;-74
2022/10/28 08:53:10;;;;;;;18.20;11.10;;;16.50;99.90;;;;;;5060120;28;20048;-74
2022/10/28 08:55:40;;;;;;;19.63;10.95;;;16.50;99.90;;;;;;5042284;28;20045;-74
2022/10/28 08:58:18;;;;;;;19.02;11.45;;;16.60;99.90;;;;;;5040447;28;20079;-80
2022/10/28 09:00:49;;;;;;;19.90;10.30;;;16.70;99.90;;;;;;5072005;28;20052;-82
2022/10/28 09:03:21;;;;;;;16.27;9.65;;;16.80;99.90;;;;;;5038222;28;20056;-81
2022/10/28 09:05:52;;;;;;;14.43;9.95;;;16.90;99.90;;;;;;5055272;28;20116;-81
2022/10/28 09:08:21;;;;;;;16.08;10.20;;;17.00;99.90;;;;;;5052754;28;20055;-81
2022/10/28 09:11:06;;;;;;;18.17;9.50;;;17.10;99.90;;;;;;5035443;28;20051;-81
2022/10/28 09:14:02;;;;;;;18.75;10.27;;;17.10;99.90;;;;;;5073638;28;20029;-81
2022/10/28 09:16:47;;;;;;;17.60;9.23;;;17.10;99.90;;;;;;5057027;28;20111;-81
2022/10/28 09:19:22;;;;;;;14.73;9.27;;;17.20;99.90;;;;;;5041012;28;20127;-74
2022/10/28 09:21:55;;;;;;;15.00;8.85;;;17.20;99.90;;;;;;5038990;28;20491;-74
2022/10/28 09:24:38;;;;;;;16.83;8.85;;;17.20;99.90;;;;;;5051320;28;20095;-74
2022/10/28 09:27:15;;;;;;;18.30;9.07;;;17.30;99.90;;;;;;5041894;28;20086;-81
2022/10/28 09:29:56;;;;;;;19.40;8.98;;;17.30;99.90;;;;;;5041149;28;20040;-80
2022/10/28 09:32:49;;;;;;;16.23;8.68;;;17.30;99.90;;;;;;5059086;28;20032;-81
2022/10/28 09:35:18;;;;;;;15.88;8.70;;;17.40;99.90;;;;;;5056240;28;20068;-81
2022/10/28 09:37:49;;;;;;;18.55;8.45;;;17.50;99.90;;;;;;5061326;28;20160;-81
2022/10/28 09:40:26;;;;;;;18.83;9.23;;;17.50;99.90;;;;;;5057402;28;20044;-81
2022/10/28 09:43:13;;;;;;;14.07;7.90;;;17.60;99.90;;;;;;5059638;28;20059;-80
2022/10/28 09:45:45;;;;;;;19.23;9.05;;;17.60;99.90;;;;;;5060421;28;20040;-81
2022/10/28 09:48:30;;;;;;;17.35;7.85;;;17.70;99.90;;;;;;5054998;28;20476;-80
2022/10/28 09:51:02;;;;;;;17.20;8.10;;;17.70;99.90;;;;;;5046175;28;20090;-81
2022/10/28 09:53:40;;;;;;;18.83;8.02;;;17.70;99.90;;;;;;5046027;28;20044;-80
2022/10/28 09:56:06;;;;;;;16.52;7.82;;;17.70;99.90;;;;;;5056748;28;20159;-81
2022/10/28 09:58:33;;;;;;;15.60;7.88;;;17.80;99.90;;;;;;5026735;28;20044;-81
2022/10/28 10:01:00;;;;;;;12.18;7.80;;;17.80;99.90;;;;;;5039810;28;20060;-81
2022/10/28 10:03:26;;;;;;;16.00;7.90;;;17.80;99.90;;;;;;5043946;28;20054;-81
2022/10/28 10:05:55;;;;;;;14.98;7.53;;;17.80;99.90;;;;;;5044614;28;20045;-82
2022/10/28 10:08:40;;;;;;;13.60;7.53;;;17.80;99.90;;;;;;5040577;28;20041;-81
2022/10/28 10:11:29;;;;;;;20.20;8.57;;;17.80;99.90;;;;;;5054821;28;20456;-81
2022/10/28 10:14:00;;;;;;;16.50;8.13;;;17.80;99.90;;;;;;5048219;28;20059;-80
2022/10/28 10:16:41;;;;;;;14.10;8.15;;;17.80;99.90;;;;;;5055879;28;20033;-80
2022/10/28 10:19:09;;;;;;;13.98;8.93;;;17.80;99.90;;;;;;5057172;28;20056;-81
2022/10/28 10:21:49;;;;;;;17.25;8.27;;;17.80;99.90;;;;;;5058197;28;20499;-80
2022/10/28 10:24:31;;;;;;;13.80;7.57;;;17.90;99.90;;;;;;5023627;28;20498;-81
2022/10/28 10:27:22;;;;;;;18.13;7.53;;;17.90;99.90;;;;;;5036825;28;20053;-81
2022/10/28 10:29:50;;;;;;;16.13;6.88;;;18.00;99.90;;;;;;5034430;28;20057;-81
2022/10/28 10:32:24;;;;;;;17.65;8.13;;;18.00;99.90;;;;;;5040383;28;20051;-80
2022/10/28 10:35:00;;;;;;;17.50;7.47;;;18.10;99.90;;;;;;5055288;28;20139;-81
2022/10/28 10:37:31;;;;;;;18.05;8.10;;;18.10;99.90;;;;;;5055329;28;20051;-81
2022/10/28 10:40:22;;;;;;;14.90;7.30;;;18.20;99.90;;;;;;5041636;28;20040;-81
2022/10/28 10:42:48;;;;;;;13.98;7.22;;;18.20;99.90;;;;;;5049432;28;20049;-80
2022/10/28 10:45:18;;;;;;;13.07;7.35;;;18.30;99.90;;;;;;5058853;28;20110;-81
2022/10/28 10:47:44;;;;;;;13.95;7.65;;;18.30;99.90;;;;;;5038850;28;20045;-81
2022/10/28 10:50:31;;;;;;;16.20;6.75;;;18.40;99.90;;;;;;5045831;28;20080;-81
2022/10/28 10:53:01;;;;;;;15.70;7.32;;;18.40;99.90;;;;;;5041979;28;21243;-81
2022/10/28 10:55:35;;;;;;;15.40;7.75;;;18.50;99.90;;;;;;5053439;28;20131;-81
2022/10/28 10:58:02;;;;;;;13.90;7.70;;;18.60;99.90;;;;;;5047062;28;20037;-80
2022/10/28 11:00:44;;;;;;;12.23;6.65;;;18.60;99.90;;;;;;5058082;28;20053;-81
2022/10/28 11:03:19;;;;;;;14.10;7.32;;;18.70;99.90;;;;;;5049025;28;20091;-81
2022/10/28 11:05:55;;;;;;;13.68;7.43;;;18.70;99.90;;;;;;5061180;28;20048;-81
2022/10/28 11:08:26;;;;;;;17.23;8.10;;;18.70;99.90;;;;;;5062967;28;20202;-81
2022/10/28 11:11:12;;;;;;;20.98;8.30;;;18.70;99.90;;;;;;5057677;28;20040;-81
2022/10/28 11:13:38;;;;;;;17.48;8.27;;;18.70;99.90;;;;;;5058044;28;20778;-81
2022/10/28 11:16:21;;;;;;;13.93;7.47;;;18.80;99.90;;;;;;5057641;28;20033;-82
2022/10/28 11:18:49;;;;;;;15.85;8.45;;;18.90;99.90;;;;;;5040228;28;20057;-81
2022/10/28 11:21:27;;;;;;;16.90;7.90;;;18.90;99.90;;;;;;5041013;28;20037;-81
2022/10/28 11:24:11;;;;;;;17.73;8.32;;;18.90;99.90;;;;;;5058663;28;20056;-81
2022/10/28 11:26:44;;;;;;;13.18;7.15;;;19.00;99.90;;;;;;5058985;28;20040;-81
2022/10/28 11:29:14;;;;;;;12.10;7.00;;;19.00;99.90;;;;;;5060890;28;20044;-81
2022/10/28 11:31:58;;;;;;;15.60;7.30;;;19.10;99.90;;;;;;5063529;28;20050;-80
2022/10/28 11:34:55;;;;;;;15.75;7.85;;;19.10;99.90;;;;;;5040105;28;20093;-81
2022/10/28 11:37:24;;;;;;;18.30;8.05;;;19.20;99.90;;;;;;5060137;28;20484;-81
2022/10/28 11:40:13;;;;;;;13.40;7.38;;;19.20;99.90;;;;;;5061538;28;20046;-81
2022/10/28 11:42:46;;;;;;;18.92;7.72;;;19.20;99.90;;;;;;5050914;28;20407;-81
2022/10/28 11:45:20;;;;;;;15.02;7.00;;;19.30;99.90;;;;;;5042375;28;20045;-81
2022/10/28 11:48:19;;;;;;;18.38;7.88;;;19.30;99.90;;;;;;5061630;28;20052;-81
2022/10/28 11:51:05;;;;;;;17.63;7.93;;;19.30;99.90;;;;;;5043437;28;20040;-81
2022/10/28 11:53:51;;;;;;;17.50;7.65;;;19.40;99.90;;;;;;5041003;28;20056;-82
2022/10/28 11:56:26;;;;;;;15.38;7.57;;;19.40;99.90;;;;;;5022235;28;20045;-81
2022/10/28 11:59:13;;;;;;;19.48;7.80;;;19.50;99.90;;;;;;5041177;28;20289;-81
2022/10/28 12:01:43;;;;;;;19.23;7.93;;;19.60;99.90;;;;;;5055325;28;20048;-81
2022/10/28 12:04:21;;;;;;;14.30;7.85;;;19.60;99.90;;;;;;5060082;28;20044;-81
2022/10/28 12:07:02;;;;;;;11.45;6.50;;;19.60;99.90;;;;;;5055351;28;20679;-81
2022/10/28 12:09:33;;;;;;;15.82;7.32;;;19.70;99.90;;;;;;5056973;28;20024;-81
2022/10/28 12:12:20;;;;;;;14.60;8.07;;;19.70;99.90;;;;;;5055549;28;20048;-81
2022/10/28 12:14:55;;;;;;;16.85;7.07;;;19.70;99.90;;;;;;5043112;28;20047;-81
2022/10/28 12:17:40;;;;;;;17.55;7.68;;;19.70;99.90;;;;;;5061931;28;20048;-81
2022/10/28 12:20:21;;;;;;;14.65;7.05;;;19.70;99.90;;;;;;5058596;28;20052;-82
2022/10/28 12:22:54;;;;;;;18.58;7.95;;;19.70;99.90;;;;;;5042625;28;20032;-82
2022/10/28 12:25:24;;;;;;;17.55;8.05;;;19.80;99.90;;;;;;5057638;28;20113;-81
2022/10/28 12:27:54;;;;;;;15.18;7.43;;;19.80;99.90;;;;;;5061830;28;20129;-82
2022/10/28 12:30:23;;;;;;;16.85;7.63;;;19.80;99.90;;;;;;5063802;28;20048;-81
2022/10/28 12:32:55;;;;;;;15.07;7.85;;;19.80;99.90;;;;;;5044783;28;20083;-81
2022/10/28 12:35:27;;;;;;;16.70;7.78;;;19.80;99.90;;;;;;5043382;28;20136;-82
2022/10/28 12:38:21;;;;;;;16.27;7.93;;;19.80;99.90;;;;;;5046044;28;20037;-81
2022/10/28 12:41:14;;;;;;;17.58;7.80;;;19.80;99.90;;;;;;5039898;28;20135;-81
2022/10/28 12:43:40;;;;;;;16.65;7.78;;;19.80;99.90;;;;;;5050040;28;20127;-81
2022/10/28 12:46:33;;;;;;;15.52;8.70;;;19.80;99.90;;;;;;5056537;28;20459;-82
2022/10/28 12:49:09;;;;;;;16.27;7.78;;;19.80;99.90;;;;;;5048322;28;20909;-81
2022/10/28 12:51:40;;;;;;;15.40;7.40;;;19.80;99.90;;;;;;5059020;28;20043;-81
2022/10/28 12:54:15;;;;;;;17.60;8.60;;;19.80;99.90;;;;;;5054561;28;20107;-80